createdAt,value
2023-05-14T00:00:05.576Z,72.15
2023-05-14T00:01:05.611Z,72.71
2023-05-14T00:02:05.642Z,73.41
2023-05-14T00:03:05.667Z,73.25
2023-05-14T00:04:05.764Z,73.27
2023-05-14T00:05:05.714Z,75.37
2023-05-14T00:06:05.698Z,75.24
2023-05-14T00:07:05.726Z,72.11
2023-05-14T00:08:05.759Z,75.67
2023-05-14T00:09:05.767Z,73.83
2023-05-14T00:10:05.791Z,70.58
2023-05-14T00:11:05.842Z,73.15
2023-05-14T00:12:05.846Z,75.20
2023-05-14T00:13:05.866Z,70.93
2023-05-14T00:14:05.880Z,72.75
2023-05-14T00:15:05.917Z,75.44
2023-05-14T00:16:05.964Z,74.37
2023-05-14T00:17:05.928Z,74.57
2023-05-14T00:18:05.986Z,72.85
2023-05-14T00:19:06.108Z,74.01
2023-05-14T00:20:06.000Z,75.33
2023-05-14T00:21:06.019Z,74.05
2023-05-14T00:22:05.980Z,72.46
2023-05-14T00:23:06.014Z,74.19
2023-05-14T00:24:06.025Z,72.95
2023-05-14T00:25:06.017Z,72.73
2023-05-14T00:26:06.026Z,74.46
2023-05-14T00:27:06.048Z,74.09
2023-05-14T00:28:06.061Z,71.41
2023-05-14T00:29:06.102Z,73.00
2023-05-14T00:30:06.134Z,73.23
2023-05-14T00:31:06.106Z,73.22
2023-05-14T00:32:06.090Z,73.47
2023-05-14T00:33:06.166Z,72.13
2023-05-14T00:34:06.144Z,73.31
2023-05-14T00:35:06.164Z,71.90
2023-05-14T00:36:06.173Z,72.72
2023-05-14T00:37:06.171Z,70.08
2023-05-14T00:38:06.260Z,76.05
2023-05-14T00:39:06.193Z,72.40
2023-05-14T00:40:06.254Z,74.48
2023-05-14T00:41:06.232Z,76.93
2023-05-14T00:42:06.220Z,72.87
2023-05-14T00:43:06.230Z,76.37
2023-05-14T00:44:06.258Z,75.16
2023-05-14T00:45:06.235Z,73.86
2023-05-14T00:46:06.246Z,71.71
2023-05-14T00:47:06.340Z,74.80
2023-05-14T00:48:06.338Z,74.05
2023-05-14T00:49:06.339Z,70.14
2023-05-14T00:50:06.342Z,71.77
2023-05-14T00:51:06.429Z,75.00
2023-05-14T00:52:06.430Z,75.59
2023-05-14T00:53:06.475Z,75.99
2023-05-14T00:54:06.537Z,74.04
2023-05-14T00:55:06.577Z,71.27
2023-05-14T00:56:06.580Z,75.65
2023-05-14T00:57:06.629Z,72.81
2023-05-14T00:58:06.618Z,72.94
2023-05-14T00:59:06.659Z,73.12
2023-05-14T01:00:06.672Z,71.69
2023-05-14T01:01:06.820Z,73.15
2023-05-14T01:02:06.763Z,74.77
2023-05-14T01:03:06.877Z,72.77
2023-05-14T01:04:07.018Z,75.33
2023-05-14T01:05:06.886Z,69.66
2023-05-14T01:06:06.942Z,74.44
2023-05-14T01:07:06.940Z,74.46
2023-05-14T01:08:06.991Z,71.56
2023-05-14T01:09:07.048Z,75.59
2023-05-14T01:10:07.067Z,75.49
2023-05-14T01:11:07.086Z,71.25
2023-05-14T01:12:07.103Z,71.89
2023-05-14T01:13:07.062Z,72.66
2023-05-14T01:14:07.058Z,72.10
2023-05-14T01:15:07.080Z,70.39
2023-05-14T01:16:07.109Z,75.75
2023-05-14T01:17:07.030Z,69.50
2023-05-14T01:18:07.109Z,69.28
2023-05-14T01:19:07.083Z,73.62
2023-05-14T01:20:07.080Z,71.69
2023-05-14T01:21:07.067Z,75.16
2023-05-14T01:22:07.053Z,70.49
2023-05-14T01:23:07.088Z,74.84
2023-05-14T01:24:07.046Z,71.84
2023-05-14T01:25:07.079Z,76.35
2023-05-14T01:26:07.061Z,77.06
2023-05-14T01:27:07.086Z,73.11
2023-05-14T01:28:07.089Z,70.43
2023-05-14T01:29:07.131Z,75.30
2023-05-14T01:30:07.085Z,69.74
2023-05-14T01:31:07.101Z,70.43
2023-05-14T01:32:07.182Z,71.14
2023-05-14T01:33:07.215Z,72.15
2023-05-14T01:34:07.140Z,74.78
2023-05-14T01:35:07.149Z,73.43
2023-05-14T01:36:07.134Z,73.20
2023-05-14T01:37:07.116Z,73.12
2023-05-14T01:38:07.151Z,74.03
2023-05-14T01:39:07.122Z,71.22
2023-05-14T01:40:07.141Z,71.56
2023-05-14T01:41:07.159Z,73.17
2023-05-14T01:42:07.218Z,73.54
2023-05-14T01:43:07.224Z,71.38
2023-05-14T01:44:07.213Z,73.50
2023-05-14T01:45:07.195Z,70.28
2023-05-14T01:46:07.338Z,77.36
2023-05-14T01:47:07.249Z,73.73
2023-05-14T01:48:07.268Z,74.07
2023-05-14T01:49:07.285Z,70.93
2023-05-14T01:50:07.279Z,73.59
2023-05-14T01:51:07.286Z,73.22
2023-05-14T01:52:07.296Z,75.72
2023-05-14T01:53:07.327Z,69.88
2023-05-14T01:54:07.330Z,76.22
2023-05-14T01:55:07.326Z,74.88
2023-05-14T01:56:07.303Z,70.14
2023-05-14T01:57:07.325Z,68.69
2023-05-14T01:58:07.367Z,73.64
2023-05-14T01:59:07.361Z,72.33
2023-05-14T02:00:07.375Z,75.52
2023-05-14T02:01:07.404Z,71.28
2023-05-14T02:02:07.404Z,72.66
2023-05-14T02:03:07.445Z,72.30
2023-05-14T02:04:07.493Z,71.27
2023-05-14T02:05:07.432Z,74.49
2023-05-14T02:06:07.441Z,68.33
2023-05-14T02:07:07.437Z,69.70
2023-05-14T02:08:07.440Z,73.40
2023-05-14T02:09:07.846Z,73.68
2023-05-14T02:10:07.423Z,73.84
2023-05-14T02:11:07.421Z,70.70
2023-05-14T02:12:07.454Z,73.19
2023-05-14T02:13:07.475Z,72.65
2023-05-14T02:14:07.429Z,72.59
2023-05-14T02:15:07.433Z,73.30
2023-05-14T02:16:07.464Z,70.85
2023-05-14T02:17:07.473Z,72.65
2023-05-14T02:18:07.490Z,69.70
2023-05-14T02:19:07.507Z,71.32
2023-05-14T02:20:07.458Z,73.98
2023-05-14T02:21:07.488Z,71.61
2023-05-14T02:22:07.448Z,73.31
2023-05-14T02:23:07.440Z,71.79
2023-05-14T02:24:07.447Z,72.68
2023-05-14T02:25:07.473Z,73.27
2023-05-14T02:26:07.457Z,74.35
2023-05-14T02:27:07.473Z,73.97
2023-05-14T02:28:07.482Z,72.70
2023-05-14T02:29:07.483Z,71.13
2023-05-14T02:30:07.521Z,73.13
2023-05-14T02:31:07.559Z,73.45
2023-05-14T02:32:07.503Z,68.06
2023-05-14T02:33:07.550Z,71.41
2023-05-14T02:34:07.497Z,76.23
2023-05-14T02:35:07.506Z,70.10
2023-05-14T02:36:07.512Z,69.29
2023-05-14T02:37:07.513Z,73.61
2023-05-14T02:38:07.529Z,73.81
2023-05-14T02:39:07.511Z,70.77
2023-05-14T02:40:07.500Z,70.09
2023-05-14T02:41:07.506Z,67.79
2023-05-14T02:42:07.483Z,74.86
2023-05-14T02:43:07.469Z,71.96
2023-05-14T02:44:07.505Z,71.34
2023-05-14T02:45:07.493Z,71.12
2023-05-14T02:46:07.504Z,73.51
2023-05-14T02:47:07.592Z,73.22
2023-05-14T02:48:07.564Z,73.14
2023-05-14T02:49:07.532Z,70.93
2023-05-14T02:50:07.482Z,73.79
2023-05-14T02:51:07.484Z,71.71
2023-05-14T02:52:07.494Z,72.60
2023-05-14T02:53:07.477Z,72.60
2023-05-14T02:54:07.566Z,69.56
2023-05-14T02:55:07.457Z,73.55
2023-05-14T02:56:07.483Z,70.91
2023-05-14T02:57:07.479Z,74.51
2023-05-14T02:58:07.451Z,70.89
2023-05-14T02:59:07.453Z,69.33
2023-05-14T03:00:07.482Z,70.32
2023-05-14T03:01:07.487Z,68.28
2023-05-14T03:02:07.591Z,73.17
2023-05-14T03:03:07.479Z,71.52
2023-05-14T03:04:07.483Z,70.04
2023-05-14T03:05:07.477Z,69.47
2023-05-14T03:06:07.489Z,70.20
2023-05-14T03:07:07.441Z,67.30
2023-05-14T03:08:07.439Z,70.04
2023-05-14T03:09:07.433Z,72.36
2023-05-14T03:10:07.433Z,66.50
2023-05-14T03:11:07.416Z,69.51
2023-05-14T03:12:07.416Z,70.82
2023-05-14T03:13:07.416Z,69.75
2023-05-14T03:14:07.399Z,66.99
2023-05-14T03:15:07.432Z,71.67
2023-05-14T03:16:07.404Z,69.24
2023-05-14T03:17:07.465Z,70.52
2023-05-14T03:18:07.421Z,70.57
2023-05-14T03:19:07.549Z,68.66
2023-05-14T03:20:07.409Z,69.20
2023-05-14T03:21:07.368Z,70.87
2023-05-14T03:22:07.356Z,73.18
2023-05-14T03:23:07.360Z,69.25
2023-05-14T03:24:07.421Z,72.25
2023-05-14T03:25:07.357Z,71.01
2023-05-14T03:26:07.373Z,69.95
2023-05-14T03:27:07.398Z,70.90
2023-05-14T03:28:07.346Z,70.12
2023-05-14T03:29:07.374Z,70.81
2023-05-14T03:30:07.361Z,70.57
2023-05-14T03:31:07.419Z,68.61
2023-05-14T03:32:07.340Z,69.87
2023-05-14T03:33:07.422Z,71.30
2023-05-14T03:34:07.350Z,66.65
2023-05-14T03:35:07.357Z,68.83
2023-05-14T03:36:07.376Z,69.46
2023-05-14T03:37:07.372Z,68.60
2023-05-14T03:38:07.368Z,70.94
2023-05-14T03:39:07.358Z,68.90
2023-05-14T03:40:07.352Z,69.22
2023-05-14T03:41:07.349Z,66.64
2023-05-14T03:42:07.332Z,69.81
2023-05-14T03:43:07.356Z,70.58
2023-05-14T03:44:07.356Z,70.90
2023-05-14T03:45:07.358Z,67.10
2023-05-14T03:46:07.349Z,66.61
2023-05-14T03:47:07.328Z,67.03
2023-05-14T03:48:07.397Z,68.60
2023-05-14T03:49:07.413Z,68.87
2023-05-14T03:50:07.343Z,67.90
2023-05-14T03:51:07.351Z,69.44
2023-05-14T03:52:07.891Z,64.93
2023-05-14T03:53:07.320Z,68.56
2023-05-14T03:54:07.310Z,64.09
2023-05-14T03:55:07.323Z,65.55
2023-05-14T03:56:07.289Z,70.95
2023-05-14T03:57:07.331Z,68.76
2023-05-14T03:58:07.309Z,67.65
2023-05-14T03:59:07.312Z,65.16
2023-05-14T04:00:07.322Z,68.95
2023-05-14T04:01:07.304Z,64.85
2023-05-14T04:02:07.333Z,64.11
2023-05-14T04:03:07.398Z,68.56
2023-05-14T04:04:07.414Z,68.56
2023-05-14T04:05:07.309Z,67.76
2023-05-14T04:06:07.281Z,68.76
2023-05-14T04:07:07.297Z,67.95
2023-05-14T04:08:07.290Z,68.65
2023-05-14T04:09:07.292Z,71.09
2023-05-14T04:10:07.287Z,65.11
2023-05-14T04:11:07.293Z,64.66
2023-05-14T04:12:07.258Z,68.25
2023-05-14T04:13:07.301Z,69.56
2023-05-14T04:14:07.266Z,65.94
2023-05-14T04:15:07.302Z,68.42
2023-05-14T04:16:07.430Z,64.26
2023-05-14T04:17:07.276Z,70.87
2023-05-14T04:18:07.294Z,67.82
2023-05-14T04:19:07.351Z,66.05
2023-05-14T04:20:07.250Z,64.61
2023-05-14T04:21:07.258Z,69.47
2023-05-14T04:22:07.250Z,70.59
2023-05-14T04:23:07.270Z,65.77
2023-05-14T04:24:07.270Z,67.00
2023-05-14T04:25:07.269Z,66.64
2023-05-14T04:26:07.267Z,65.62
2023-05-14T04:27:07.224Z,67.45
2023-05-14T04:28:07.265Z,70.29
2023-05-14T04:29:07.242Z,67.39
2023-05-14T04:30:07.234Z,67.46
2023-05-14T04:31:07.221Z,65.10
2023-05-14T04:32:07.364Z,66.94
2023-05-14T04:33:07.243Z,68.01
2023-05-14T04:34:07.243Z,66.43
2023-05-14T04:35:07.191Z,69.74
2023-05-14T04:36:07.220Z,63.90
2023-05-14T04:37:07.215Z,65.39
2023-05-14T04:38:07.226Z,67.25
2023-05-14T04:39:07.213Z,69.25
2023-05-14T04:40:07.236Z,67.52
2023-05-14T04:41:07.242Z,67.13
2023-05-14T04:42:07.216Z,63.14
2023-05-14T04:43:07.210Z,65.11
2023-05-14T04:44:07.240Z,66.02
2023-05-14T04:45:07.220Z,64.18
2023-05-14T04:46:07.251Z,65.90
2023-05-14T04:47:07.205Z,68.18
2023-05-14T04:48:07.262Z,65.73
2023-05-14T04:49:07.290Z,65.98
2023-05-14T04:50:07.213Z,66.32
2023-05-14T04:51:07.351Z,65.03
2023-05-14T04:52:07.195Z,63.34
2023-05-14T04:53:07.206Z,63.58
2023-05-14T04:54:07.276Z,62.49
2023-05-14T04:55:07.219Z,64.87
2023-05-14T04:56:07.223Z,63.29
2023-05-14T04:57:07.218Z,62.33
2023-05-14T04:58:07.246Z,65.84
2023-05-14T04:59:07.207Z,68.08
2023-05-14T05:00:07.211Z,66.17
2023-05-14T05:01:07.300Z,63.57
2023-05-14T05:02:07.212Z,65.73
2023-05-14T05:03:07.315Z,64.96
2023-05-14T05:04:07.268Z,62.10
2023-05-14T05:05:07.194Z,62.14
2023-05-14T05:06:07.239Z,65.23
2023-05-14T05:07:07.236Z,61.86
2023-05-14T05:08:07.192Z,68.85
2023-05-14T05:09:07.199Z,64.06
2023-05-14T05:10:07.211Z,62.10
2023-05-14T05:11:07.234Z,63.91
2023-05-14T05:12:07.219Z,66.13
2023-05-14T05:13:07.261Z,63.30
2023-05-14T05:14:07.285Z,62.28
2023-05-14T05:15:07.256Z,63.37
2023-05-14T05:16:07.297Z,64.35
2023-05-14T05:17:07.232Z,65.73
2023-05-14T05:18:07.245Z,62.17
2023-05-14T05:19:07.361Z,64.99
2023-05-14T05:20:07.234Z,65.23
2023-05-14T05:21:07.281Z,62.52
2023-05-14T05:22:07.250Z,64.23
2023-05-14T05:23:07.291Z,62.31
2023-05-14T05:24:07.261Z,64.74
2023-05-14T05:25:07.274Z,64.89
2023-05-14T05:26:07.236Z,62.55
2023-05-14T05:27:07.256Z,63.80
2023-05-14T05:28:07.260Z,60.81
2023-05-14T05:29:07.241Z,57.73
2023-05-14T05:30:07.241Z,64.34
2023-05-14T05:31:07.435Z,60.22
2023-05-14T05:32:07.250Z,65.48
2023-05-14T05:33:07.323Z,64.84
2023-05-14T05:34:07.229Z,63.12
2023-05-14T05:35:07.251Z,64.99
2023-05-14T05:36:07.212Z,64.13
2023-05-14T05:37:07.246Z,63.39
2023-05-14T05:38:07.235Z,66.60
2023-05-14T05:39:07.189Z,59.97
2023-05-14T05:40:07.271Z,64.37
2023-05-14T05:41:07.222Z,64.01
2023-05-14T05:42:07.212Z,64.70
2023-05-14T05:43:07.217Z,63.64
2023-05-14T05:44:07.181Z,61.97
2023-05-14T05:45:07.230Z,59.11
2023-05-14T05:46:07.274Z,60.71
2023-05-14T05:47:07.227Z,65.01
2023-05-14T05:48:07.282Z,64.03
2023-05-14T05:49:07.245Z,61.81
2023-05-14T05:50:07.209Z,63.34
2023-05-14T05:51:07.195Z,60.88
2023-05-14T05:52:07.202Z,65.08
2023-05-14T05:53:07.181Z,60.16
2023-05-14T05:54:07.199Z,63.63
2023-05-14T05:55:07.216Z,58.18
2023-05-14T05:56:07.243Z,57.24
2023-05-14T05:57:07.196Z,62.09
2023-05-14T05:58:07.193Z,63.31
2023-05-14T05:59:07.223Z,61.01
2023-05-14T06:00:07.367Z,63.83
2023-05-14T06:01:07.201Z,61.37
2023-05-14T06:02:07.300Z,59.33
2023-05-14T06:03:07.346Z,64.01
2023-05-14T06:04:07.212Z,60.69
2023-05-14T06:05:07.270Z,61.34
2023-05-14T06:06:07.245Z,60.24
2023-05-14T06:07:07.212Z,59.65
2023-05-14T06:08:07.224Z,60.79
2023-05-14T06:09:07.230Z,60.06
2023-05-14T06:10:07.243Z,63.39
2023-05-14T06:11:07.231Z,60.43
2023-05-14T06:12:07.244Z,57.38
2023-05-14T06:13:07.235Z,59.72
2023-05-14T06:14:07.246Z,56.82
2023-05-14T06:15:07.252Z,63.55
2023-05-14T06:16:07.327Z,60.27
2023-05-14T06:17:07.263Z,57.41
2023-05-14T06:18:07.264Z,57.79
2023-05-14T06:19:07.307Z,57.65
2023-05-14T06:20:07.225Z,58.60
2023-05-14T06:21:07.233Z,59.49
2023-05-14T06:22:07.220Z,55.76
2023-05-14T06:23:07.245Z,62.02
2023-05-14T06:24:07.243Z,60.09
2023-05-14T06:25:07.260Z,61.04
2023-05-14T06:26:07.304Z,58.29
2023-05-14T06:27:07.239Z,61.56
2023-05-14T06:28:07.235Z,62.08
2023-05-14T06:29:07.240Z,58.71
2023-05-14T06:30:07.248Z,59.36
2023-05-14T06:31:07.215Z,55.99
2023-05-14T06:32:07.279Z,57.93
2023-05-14T06:33:07.297Z,58.82
2023-05-14T06:34:07.223Z,55.49
2023-05-14T06:35:07.212Z,58.85
2023-05-14T06:36:07.238Z,58.05
2023-05-14T06:37:07.213Z,60.01
2023-05-14T06:38:07.232Z,53.94
2023-05-14T06:39:07.200Z,54.82
2023-05-14T06:40:07.208Z,54.49
2023-05-14T06:41:07.199Z,56.75
2023-05-14T06:42:07.202Z,53.17
2023-05-14T06:43:07.176Z,53.61
2023-05-14T06:44:07.180Z,59.56
2023-05-14T06:45:07.205Z,57.85
2023-05-14T06:46:07.177Z,55.86
2023-05-14T06:47:07.199Z,54.81
2023-05-14T06:48:07.265Z,53.53
2023-05-14T06:49:07.209Z,54.81
2023-05-14T06:50:08.385Z,51.89
2023-05-14T06:51:07.168Z,55.62
2023-05-14T06:52:07.176Z,54.11
2023-05-14T06:53:07.153Z,53.21
2023-05-14T06:54:07.220Z,56.50
2023-05-14T06:55:07.184Z,54.42
2023-05-14T06:56:07.172Z,54.86
2023-05-14T06:57:07.159Z,53.33
2023-05-14T06:58:07.179Z,53.17
2023-05-14T06:59:07.197Z,49.67
2023-05-14T07:00:07.154Z,55.03
2023-05-14T07:01:07.177Z,48.83
2023-05-14T07:02:07.164Z,53.02
2023-05-14T07:03:07.229Z,52.95
2023-05-14T07:04:07.212Z,52.02
2023-05-14T07:05:07.131Z,52.10
2023-05-14T07:06:07.152Z,56.09
2023-05-14T07:07:07.130Z,51.11
2023-05-14T07:08:07.125Z,50.63
2023-05-14T07:09:07.163Z,51.26
2023-05-14T07:10:07.158Z,54.09
2023-05-14T07:11:07.170Z,50.91
2023-05-14T07:12:07.162Z,52.76
2023-05-14T07:13:07.139Z,50.19
2023-05-14T07:14:07.140Z,50.59
2023-05-14T07:15:07.128Z,49.12
2023-05-14T07:16:07.169Z,52.62
2023-05-14T07:17:07.244Z,52.69
2023-05-14T07:18:07.236Z,51.58
2023-05-14T07:19:07.241Z,53.00
2023-05-14T07:20:07.204Z,54.94
2023-05-14T07:21:07.230Z,50.53
2023-05-14T07:22:07.219Z,51.38
2023-05-14T07:23:07.216Z,48.21
2023-05-14T07:24:07.209Z,49.09
2023-05-14T07:25:07.204Z,50.72
2023-05-14T07:26:07.237Z,48.70
2023-05-14T07:27:07.266Z,50.24
2023-05-14T07:28:07.232Z,51.33
2023-05-14T07:29:07.257Z,49.62
2023-05-14T07:30:07.256Z,47.69
2023-05-14T07:31:07.310Z,46.71
2023-05-14T07:32:07.252Z,51.16
2023-05-14T07:33:07.314Z,49.12
2023-05-14T07:34:07.383Z,49.86
2023-05-14T07:35:07.271Z,50.65
2023-05-14T07:36:07.314Z,50.37
2023-05-14T07:37:07.320Z,47.82
2023-05-14T07:38:07.344Z,45.70
2023-05-14T07:39:07.352Z,49.10
2023-05-14T07:40:08.026Z,47.68
2023-05-14T07:41:07.431Z,48.51
2023-05-14T07:42:07.497Z,45.33
2023-05-14T07:43:07.520Z,50.09
2023-05-14T07:44:07.557Z,46.16
2023-05-14T07:45:07.555Z,45.16
2023-05-14T07:46:07.583Z,46.41
2023-05-14T07:47:07.793Z,45.64
2023-05-14T07:48:07.863Z,51.04
2023-05-14T07:49:07.713Z,46.27
2023-05-14T07:50:07.755Z,47.75
2023-05-14T07:51:07.814Z,48.24
2023-05-14T07:52:07.822Z,42.86
2023-05-14T07:53:07.889Z,46.00
2023-05-14T07:54:07.894Z,47.86
2023-05-14T07:55:07.940Z,45.23
2023-05-14T07:56:07.982Z,44.55
2023-05-14T07:57:08.053Z,45.74
2023-05-14T07:58:08.125Z,47.56
2023-05-14T07:59:08.168Z,46.87
2023-05-14T08:00:08.178Z,45.76
2023-05-14T08:01:08.283Z,45.18
2023-05-14T08:02:08.317Z,44.65
2023-05-14T08:03:08.443Z,40.72
2023-05-14T08:04:08.550Z,43.72
2023-05-14T08:05:08.501Z,43.04
2023-05-14T08:06:08.596Z,40.86
2023-05-14T08:07:08.599Z,41.56
2023-05-14T08:08:08.688Z,43.84
2023-05-14T08:09:08.727Z,41.16
2023-05-14T08:10:08.798Z,39.01
2023-05-14T08:11:08.924Z,40.23
2023-05-14T08:12:08.921Z,41.73
2023-05-14T08:13:08.970Z,38.59
2023-05-14T08:14:09.043Z,38.19
2023-05-14T08:15:09.117Z,39.80
2023-05-14T08:16:09.176Z,39.41
2023-05-14T08:17:09.283Z,40.54
2023-05-14T08:18:09.328Z,38.95
2023-05-14T08:19:09.402Z,38.76
2023-05-14T08:20:09.411Z,39.85
2023-05-14T08:21:09.495Z,34.93
2023-05-14T08:22:09.518Z,36.98
2023-05-14T08:23:09.588Z,36.91
2023-05-14T08:24:09.671Z,37.63
2023-05-14T08:25:09.740Z,35.56
2023-05-14T08:26:09.764Z,38.52
2023-05-14T08:27:09.866Z,35.06
2023-05-14T08:28:09.931Z,37.19
2023-05-14T08:29:10.760Z,34.20
2023-05-14T08:30:10.028Z,38.11
2023-05-14T08:31:10.118Z,36.03
2023-05-14T08:32:22.057Z,34.73
2023-05-14T08:33:11.180Z,34.86
2023-05-14T08:34:10.131Z,35.04
2023-05-14T08:35:10.099Z,32.14
2023-05-14T08:36:10.123Z,31.63
2023-05-14T08:37:10.114Z,29.89
2023-05-14T08:38:10.091Z,31.62
2023-05-14T08:39:10.104Z,25.00
2023-05-14T08:40:10.086Z,25.72
2023-05-14T08:41:10.100Z,30.18
2023-05-14T08:42:10.058Z,29.32
2023-05-14T08:43:10.055Z,27.07
2023-05-14T08:44:10.134Z,28.35
2023-05-14T08:45:10.213Z,29.08
2023-05-14T08:46:10.209Z,27.80
2023-05-14T08:47:10.237Z,29.14
2023-05-14T08:48:10.294Z,26.82
2023-05-14T08:49:10.376Z,28.29
2023-05-14T08:50:10.325Z,29.03
2023-05-14T08:51:10.362Z,28.27
2023-05-14T08:52:10.363Z,28.26
2023-05-14T08:53:10.411Z,28.34
2023-05-14T08:54:10.427Z,32.52
2023-05-14T08:55:10.449Z,28.96
2023-05-14T08:56:10.483Z,24.78
2023-05-14T08:57:10.475Z,30.31
2023-05-14T08:58:10.513Z,26.54
2023-05-14T08:59:10.512Z,29.80
2023-05-14T09:00:10.516Z,30.80
2023-05-14T09:01:10.532Z,31.84
2023-05-14T09:02:10.663Z,33.75
2023-05-14T09:03:10.619Z,32.64
2023-05-14T09:04:10.733Z,32.21
2023-05-14T09:05:10.633Z,33.41
2023-05-14T09:06:10.636Z,26.78
2023-05-14T09:07:10.644Z,30.17
2023-05-14T09:08:10.659Z,32.73
2023-05-14T09:09:10.663Z,30.89
2023-05-14T09:10:10.710Z,27.40
2023-05-14T09:11:10.682Z,26.40
2023-05-14T09:12:10.677Z,28.67
2023-05-14T09:13:10.714Z,29.77
2023-05-14T09:14:10.693Z,30.46
2023-05-14T09:15:10.698Z,28.24
2023-05-14T09:16:10.682Z,26.49
2023-05-14T09:17:10.701Z,27.30
2023-05-14T09:18:10.718Z,28.42
2023-05-14T09:19:10.809Z,30.46
2023-05-14T09:20:10.698Z,36.26
2023-05-14T09:21:10.655Z,34.39
2023-05-14T09:22:10.695Z,33.86
2023-05-14T09:23:10.689Z,35.29
2023-05-14T09:24:10.702Z,35.24
2023-05-14T09:25:10.713Z,36.44
2023-05-14T09:26:10.703Z,34.89
2023-05-14T09:27:10.712Z,35.70
2023-05-14T09:28:10.735Z,39.94
2023-05-14T09:29:10.741Z,39.47
2023-05-14T09:30:10.746Z,40.50
2023-05-14T09:31:10.763Z,37.59
2023-05-14T09:32:10.711Z,38.60
2023-05-14T09:33:10.786Z,38.89
2023-05-14T09:34:10.721Z,39.13
2023-05-14T09:35:10.738Z,38.89
2023-05-14T09:36:10.712Z,39.79
2023-05-14T09:37:10.719Z,39.85
2023-05-14T09:38:10.777Z,38.29
2023-05-14T09:39:10.769Z,36.02
2023-05-14T09:40:10.774Z,38.22
2023-05-14T09:41:10.769Z,40.77
2023-05-14T09:42:10.794Z,41.16
2023-05-14T09:43:10.779Z,42.54
2023-05-14T09:44:10.778Z,40.02
2023-05-14T09:45:10.812Z,39.96
2023-05-14T09:46:10.756Z,43.66
2023-05-14T09:47:10.800Z,41.70
2023-05-14T09:48:11.019Z,41.82
2023-05-14T09:49:10.825Z,42.26
2023-05-14T09:50:10.812Z,43.25
2023-05-14T09:51:10.814Z,40.45
2023-05-14T09:52:10.789Z,39.77
2023-05-14T09:53:10.818Z,40.62
2023-05-14T09:54:10.844Z,42.49
2023-05-14T09:55:10.819Z,39.94
2023-05-14T09:56:10.855Z,41.09
2023-05-14T09:57:10.858Z,43.51
2023-05-14T09:58:10.855Z,41.29
2023-05-14T09:59:10.884Z,38.09
2023-05-14T10:00:10.877Z,43.49
2023-05-14T10:01:10.957Z,42.15
2023-05-14T10:02:10.927Z,43.99
2023-05-14T10:03:10.978Z,42.81
2023-05-14T10:04:10.954Z,39.31
2023-05-14T10:05:10.962Z,44.98
2023-05-14T10:06:10.966Z,40.32
2023-05-14T10:07:10.965Z,41.94
2023-05-14T10:08:10.972Z,41.35
2023-05-14T10:09:11.009Z,40.97
2023-05-14T10:10:11.020Z,41.76
2023-05-14T10:11:11.032Z,40.94
2023-05-14T10:12:11.064Z,38.48
2023-05-14T10:13:11.071Z,41.85
2023-05-14T10:14:11.073Z,42.06
2023-05-14T10:15:11.133Z,39.11
2023-05-14T10:16:11.118Z,42.28
2023-05-14T10:17:11.224Z,40.49
2023-05-14T10:18:11.199Z,37.15
2023-05-14T10:19:11.234Z,41.22
2023-05-14T10:20:11.197Z,41.01
2023-05-14T10:21:11.223Z,41.09
2023-05-14T10:22:11.221Z,38.86
2023-05-14T10:23:11.204Z,40.07
2023-05-14T10:24:11.257Z,42.79
2023-05-14T10:25:11.269Z,39.64
2023-05-14T10:26:11.266Z,41.43
2023-05-14T10:27:11.312Z,40.21
2023-05-14T10:28:11.331Z,39.28
2023-05-14T10:29:11.342Z,39.47
2023-05-14T10:30:11.366Z,38.27
2023-05-14T10:31:11.398Z,40.58
2023-05-14T10:32:11.374Z,40.38
2023-05-14T10:33:11.553Z,37.01
2023-05-14T10:34:11.439Z,40.31
2023-05-14T10:35:11.439Z,39.28
2023-05-14T10:36:11.471Z,41.78
2023-05-14T10:37:11.498Z,41.83
2023-05-14T10:38:11.489Z,43.45
2023-05-14T10:39:11.530Z,39.49
2023-05-14T10:40:11.565Z,47.20
2023-05-14T10:41:11.575Z,41.08
2023-05-14T10:42:11.620Z,45.65
2023-05-14T10:43:11.631Z,39.15
2023-05-14T10:44:11.653Z,41.85
2023-05-14T10:45:11.665Z,45.71
2023-05-14T10:46:11.711Z,43.17
2023-05-14T10:47:11.701Z,42.16
2023-05-14T10:48:11.734Z,40.21
2023-05-14T10:49:11.740Z,46.83
2023-05-14T10:50:11.796Z,40.97
2023-05-14T10:51:11.863Z,41.37
2023-05-14T10:52:11.789Z,40.43
2023-05-14T10:53:11.843Z,42.68
2023-05-14T10:54:11.850Z,40.85
2023-05-14T10:55:11.913Z,40.30
2023-05-14T10:56:11.904Z,42.93
2023-05-14T10:57:11.924Z,43.45
2023-05-14T10:58:11.943Z,43.84
2023-05-14T10:59:11.992Z,45.28
2023-05-14T11:00:11.998Z,42.62
2023-05-14T11:01:12.175Z,41.34
2023-05-14T11:02:12.125Z,42.83
2023-05-14T11:03:12.110Z,45.56
2023-05-14T11:04:12.245Z,42.92
2023-05-14T11:05:12.139Z,42.66
2023-05-14T11:06:12.162Z,43.21
2023-05-14T11:07:12.231Z,40.77
2023-05-14T11:08:12.236Z,45.10
2023-05-14T11:09:12.246Z,43.58
2023-05-14T11:10:12.301Z,42.06
2023-05-14T11:11:12.283Z,39.37
2023-05-14T11:12:12.300Z,40.09
2023-05-14T11:13:12.352Z,39.34
2023-05-14T11:14:12.346Z,42.75
2023-05-14T11:15:12.419Z,38.47
2023-05-14T11:16:22.963Z,38.16
2023-05-14T11:17:13.463Z,38.59
2023-05-14T11:18:12.417Z,39.16
2023-05-14T11:19:12.548Z,39.25
2023-05-14T11:20:12.436Z,40.73
2023-05-14T11:21:12.397Z,40.64
2023-05-14T11:22:12.358Z,40.53
2023-05-14T11:23:12.387Z,39.39
2023-05-14T11:24:12.370Z,39.59
2023-05-14T11:25:12.383Z,40.94
2023-05-14T11:26:12.347Z,35.60
2023-05-14T11:27:12.328Z,35.24
2023-05-14T11:28:12.348Z,39.68
2023-05-14T11:29:12.354Z,34.60
2023-05-14T11:30:12.330Z,39.46
2023-05-14T11:31:12.334Z,39.17
2023-05-14T11:32:12.398Z,38.29
2023-05-14T11:33:12.425Z,40.25
2023-05-14T11:34:12.395Z,37.98
2023-05-14T11:35:12.417Z,40.66
2023-05-14T11:36:12.424Z,35.45
2023-05-14T11:37:12.439Z,38.95
2023-05-14T11:38:12.475Z,39.71
2023-05-14T11:39:12.515Z,37.84
2023-05-14T11:40:12.541Z,38.65
2023-05-14T11:41:12.582Z,39.61
2023-05-14T11:42:12.605Z,37.44
2023-05-14T11:43:12.622Z,40.01
2023-05-14T11:44:12.651Z,39.42
2023-05-14T11:45:12.772Z,38.76
2023-05-14T11:46:12.733Z,39.78
2023-05-14T11:47:12.746Z,36.70
2023-05-14T11:48:12.772Z,38.20
2023-05-14T11:49:12.752Z,40.93
2023-05-14T11:50:12.793Z,38.10
2023-05-14T11:51:12.852Z,40.12
2023-05-14T11:52:12.835Z,41.24
2023-05-14T11:53:12.877Z,39.15
2023-05-14T11:54:12.933Z,37.25
2023-05-14T11:55:12.962Z,39.94
2023-05-14T11:56:12.976Z,39.96
2023-05-14T11:57:12.997Z,40.81
2023-05-14T11:58:13.039Z,38.68
2023-05-14T11:59:13.075Z,40.07
2023-05-14T12:00:13.113Z,34.55
2023-05-14T12:01:13.134Z,40.01
2023-05-14T12:02:13.256Z,36.91
2023-05-14T12:03:13.234Z,38.98
2023-05-14T12:04:13.210Z,39.97
2023-05-14T12:05:13.302Z,41.08
2023-05-14T12:06:13.231Z,39.16
2023-05-14T12:07:13.280Z,39.61
2023-05-14T12:08:13.291Z,41.59
2023-05-14T12:09:13.329Z,36.94
2023-05-14T12:10:13.394Z,37.81
2023-05-14T12:11:13.401Z,37.29
2023-05-14T12:12:13.406Z,41.13
2023-05-14T12:13:13.469Z,38.95
2023-05-14T12:14:13.479Z,39.10
2023-05-14T12:15:13.582Z,37.68
2023-05-14T12:16:13.609Z,35.54
2023-05-14T12:17:13.592Z,39.91
2023-05-14T12:18:23.404Z,35.77
2023-05-14T12:19:14.663Z,36.06
2023-05-14T12:20:13.620Z,36.79
2023-05-14T12:21:13.650Z,38.41
2023-05-14T12:22:13.605Z,38.39
2023-05-14T12:23:13.591Z,39.10
2023-05-14T12:24:13.590Z,41.11
2023-05-14T12:25:13.734Z,38.36
2023-05-14T12:26:13.598Z,35.87
2023-05-14T12:27:13.558Z,41.76
2023-05-14T12:28:13.583Z,37.28
2023-05-14T12:29:13.567Z,37.29
2023-05-14T12:31:14.566Z,40.08
2023-05-14T12:32:13.551Z,40.32
2023-05-14T12:33:13.620Z,41.21
2023-05-14T12:34:13.538Z,40.54
2023-05-14T12:35:13.591Z,37.49
2023-05-14T12:36:21.084Z,37.25
2023-05-14T12:37:14.505Z,37.59
2023-05-14T12:38:13.619Z,38.41
2023-05-14T12:39:13.508Z,38.94
2023-05-14T12:40:13.543Z,41.85
2023-05-14T12:41:13.481Z,40.37
2023-05-14T12:42:13.510Z,43.01
2023-05-14T12:43:13.489Z,44.26
2023-05-14T12:44:13.478Z,44.05
2023-05-14T12:45:13.488Z,43.36
2023-05-14T12:46:13.449Z,41.16
2023-05-14T12:47:13.583Z,38.95
2023-05-14T12:48:13.472Z,43.03
2023-05-14T12:49:13.497Z,42.94
2023-05-14T12:50:13.533Z,42.61
2023-05-14T12:51:13.521Z,43.17
2023-05-14T12:53:13.573Z,40.33
2023-05-14T12:54:13.563Z,42.00